Newtown, Ohio
Current Conditions -  °F | °C
As of 3:53 PM on Friday 19 Dec 2014 (Local Time) from KHLG Reporting Station
Overcast Overcast  
Wind Chill: 23°   Ceiling: 2600
Heat Index: 30°   Visibility: 9mi
Dew Point: 24°   Wind: 7mph
Humidity: 79%   Direction: 250°WSW
Pressure: 30.22"   Gusts: NA
Location:  40.2215°N, 80.8189°W
Report Text: KHLG 192053Z 25006KT 9SM OVC026 M01/M04 A3022 RMK AO2 SLP251 T10111044 53009
Loading
Personal Weather Stations






























Interactive Weather Map New forecast layout! Learn more

10-Day Weather Forecast

Advertisements
Track Severe Weather on mobile